sensor_id;sensor_type;location;lat;lon;timestamp;temperature;humidity
10089;DHT22;51898;49.864;8.550;2023-07-29T00:01:35;18.70;99.70
10089;DHT22;51898;49.864;8.550;2023-07-29T00:04:37;18.70;99.60
10089;DHT22;51898;49.864;8.550;2023-07-29T00:07:39;18.80;99.30
10089;DHT22;51898;49.864;8.550;2023-07-29T00:10:40;18.80;99.20
10089;DHT22;51898;49.864;8.550;2023-07-29T00:13:42;18.80;99.20
10089;DHT22;51898;49.864;8.550;2023-07-29T00:16:44;18.80;98.90
10089;DHT22;51898;49.864;8.550;2023-07-29T00:19:46;18.80;98.80
10089;DHT22;51898;49.864;8.550;2023-07-29T00:22:48;18.80;98.80
10089;DHT22;51898;49.864;8.550;2023-07-29T00:25:51;18.90;98.70
10089;DHT22;51898;49.864;8.550;2023-07-29T00:28:53;18.80;98.60
10089;DHT22;51898;49.864;8.550;2023-07-29T00:31:54;18.80;98.60
10089;DHT22;51898;49.864;8.550;2023-07-29T00:34:56;18.80;98.60
10089;DHT22;51898;49.864;8.550;2023-07-29T00:37:58;18.90;98.40
10089;DHT22;51898;49.864;8.550;2023-07-29T00:41:02;18.90;98.00
10089;DHT22;51898;49.864;8.550;2023-07-29T00:44:04;18.90;97.90
10089;DHT22;51898;49.864;8.550;2023-07-29T00:47:07;18.90;97.70
10089;DHT22;51898;49.864;8.550;2023-07-29T00:50:13;19.00;97.40
10089;DHT22;51898;49.864;8.550;2023-07-29T00:53:14;18.90;97.30
10089;DHT22;51898;49.864;8.550;2023-07-29T00:56:16;19.00;97.20
10089;DHT22;51898;49.864;8.550;2023-07-29T00:59:18;19.00;97.00
10089;DHT22;51898;49.864;8.550;2023-07-29T01:02:20;19.10;96.90
10089;DHT22;51898;49.864;8.550;2023-07-29T01:05:22;19.10;96.90
10089;DHT22;51898;49.864;8.550;2023-07-29T01:12:09;19.20;96.20
10089;DHT22;51898;49.864;8.550;2023-07-29T01:15:16;19.10;96.20
10089;DHT22;51898;49.864;8.550;2023-07-29T01:18:29;19.20;96.00
10089;DHT22;51898;49.864;8.550;2023-07-29T01:21:33;19.10;95.70
10089;DHT22;51898;49.864;8.550;2023-07-29T01:24:36;19.10;95.70
10089;DHT22;51898;49.864;8.550;2023-07-29T01:27:38;19.10;95.80
10089;DHT22;51898;49.864;8.550;2023-07-29T01:30:40;19.10;95.60
10089;DHT22;51898;49.864;8.550;2023-07-29T01:33:50;19.10;95.40
10089;DHT22;51898;49.864;8.550;2023-07-29T01:36:57;19.10;95.40
10089;DHT22;51898;49.864;8.550;2023-07-29T01:40:04;19.10;95.30
10089;DHT22;51898;49.864;8.550;2023-07-29T01:43:06;19.10;95.30
10089;DHT22;51898;49.864;8.550;2023-07-29T01:46:11;19.10;95.10
10089;DHT22;51898;49.864;8.550;2023-07-29T01:49:13;19.10;95.10
10089;DHT22;51898;49.864;8.550;2023-07-29T01:52:15;19.10;95.10
10089;DHT22;51898;49.864;8.550;2023-07-29T01:55:17;19.10;94.90
10089;DHT22;51898;49.864;8.550;2023-07-29T01:58:18;19.10;94.80
10089;DHT22;51898;49.864;8.550;2023-07-29T02:01:20;19.10;94.70
10089;DHT22;51898;49.864;8.550;2023-07-29T02:04:22;19.10;94.70
10089;DHT22;51898;49.864;8.550;2023-07-29T02:07:23;19.10;94.70
10089;DHT22;51898;49.864;8.550;2023-07-29T02:10:27;19.10;94.60
10089;DHT22;51898;49.864;8.550;2023-07-29T02:13:29;19.10;94.90
10089;DHT22;51898;49.864;8.550;2023-07-29T02:16:31;19.10;94.90
10089;DHT22;51898;49.864;8.550;2023-07-29T02:19:34;19.10;95.20
10089;DHT22;51898;49.864;8.550;2023-07-29T02:22:36;19.10;95.60
10089;DHT22;51898;49.864;8.550;2023-07-29T02:25:37;19.10;95.60
10089;DHT22;51898;49.864;8.550;2023-07-29T02:28:39;19.00;96.00
10089;DHT22;51898;49.864;8.550;2023-07-29T02:31:41;19.00;95.90
10089;DHT22;51898;49.864;8.550;2023-07-29T02:34:42;19.00;96.30
10089;DHT22;51898;49.864;8.550;2023-07-29T02:37:44;19.00;96.10
10089;DHT22;51898;49.864;8.550;2023-07-29T02:40:46;19.00;96.00
10089;DHT22;51898;49.864;8.550;2023-07-29T02:43:49;19.00;96.10
10089;DHT22;51898;49.864;8.550;2023-07-29T02:46:51;18.90;96.20
10089;DHT22;51898;49.864;8.550;2023-07-29T02:49:54;19.00;96.20
10089;DHT22;51898;49.864;8.550;2023-07-29T02:52:55;18.90;96.20
10089;DHT22;51898;49.864;8.550;2023-07-29T02:55:57;18.90;96.30
10089;DHT22;51898;49.864;8.550;2023-07-29T02:58:59;18.90;96.50
10089;DHT22;51898;49.864;8.550;2023-07-29T03:02:01;18.90;96.50
10089;DHT22;51898;49.864;8.550;2023-07-29T03:05:03;18.90;96.60
10089;DHT22;51898;49.864;8.550;2023-07-29T03:08:05;18.90;96.60
10089;DHT22;51898;49.864;8.550;2023-07-29T03:11:09;18.90;96.50
10089;DHT22;51898;49.864;8.550;2023-07-29T03:14:11;18.80;96.60
10089;DHT22;51898;49.864;8.550;2023-07-29T03:17:13;18.80;96.50
10089;DHT22;51898;49.864;8.550;2023-07-29T03:20:15;18.80;96.50
10089;DHT22;51898;49.864;8.550;2023-07-29T03:23:16;18.70;96.50
10089;DHT22;51898;49.864;8.550;2023-07-29T03:26:18;18.70;96.40
10089;DHT22;51898;49.864;8.550;2023-07-29T03:29:19;18.70;96.30
10089;DHT22;51898;49.864;8.550;2023-07-29T03:32:21;18.60;96.60
10089;DHT22;51898;49.864;8.550;2023-07-29T03:35:23;18.50;96.80
10089;DHT22;51898;49.864;8.550;2023-07-29T03:38:24;18.50;96.80
10089;DHT22;51898;49.864;8.550;2023-07-29T03:41:26;18.50;97.00
10089;DHT22;51898;49.864;8.550;2023-07-29T03:44:28;18.40;97.00
10089;DHT22;51898;49.864;8.550;2023-07-29T03:47:30;18.40;97.00
10089;DHT22;51898;49.864;8.550;2023-07-29T03:50:34;18.40;97.10
10089;DHT22;51898;49.864;8.550;2023-07-29T03:53:36;18.30;97.30
10089;DHT22;51898;49.864;8.550;2023-07-29T03:56:38;18.30;97.50
10089;DHT22;51898;49.864;8.550;2023-07-29T03:59:40;18.30;97.90
10089;DHT22;51898;49.864;8.550;2023-07-29T04:02:42;18.30;97.90
10089;DHT22;51898;49.864;8.550;2023-07-29T04:05:47;18.30;97.90
10089;DHT22;51898;49.864;8.550;2023-07-29T04:08:49;18.30;98.00
10089;DHT22;51898;49.864;8.550;2023-07-29T04:11:52;18.30;98.10
10089;DHT22;51898;49.864;8.550;2023-07-29T04:14:54;18.40;98.00
10089;DHT22;51898;49.864;8.550;2023-07-29T04:17:56;18.40;97.90
10089;DHT22;51898;49.864;8.550;2023-07-29T04:20:58;18.40;97.90
10089;DHT22;51898;49.864;8.550;2023-07-29T04:24:01;18.40;97.80
10089;DHT22;51898;49.864;8.550;2023-07-29T04:27:03;18.40;97.80
10089;DHT22;51898;49.864;8.550;2023-07-29T04:30:06;18.50;97.70
10089;DHT22;51898;49.864;8.550;2023-07-29T04:33:08;18.50;97.70
10089;DHT22;51898;49.864;8.550;2023-07-29T04:36:09;18.60;97.40
10089;DHT22;51898;49.864;8.550;2023-07-29T04:39:11;18.60;97.30
10089;DHT22;51898;49.864;8.550;2023-07-29T04:42:13;18.70;97.10
10089;DHT22;51898;49.864;8.550;2023-07-29T04:45:15;18.70;97.10
10089;DHT22;51898;49.864;8.550;2023-07-29T04:48:17;18.80;96.80
10089;DHT22;51898;49.864;8.550;2023-07-29T04:51:19;18.80;96.70
10089;DHT22;51898;49.864;8.550;2023-07-29T04:54:21;18.80;96.40
10089;DHT22;51898;49.864;8.550;2023-07-29T04:57:23;18.90;96.30
10089;DHT22;51898;49.864;8.550;2023-07-29T05:00:24;18.90;96.10
10089;DHT22;51898;49.864;8.550;2023-07-29T05:03:26;19.00;95.90
10089;DHT22;51898;49.864;8.550;2023-07-29T05:06:28;19.10;95.40
10089;DHT22;51898;49.864;8.550;2023-07-29T05:09:30;19.10;95.20
10089;DHT22;51898;49.864;8.550;2023-07-29T05:12:32;19.20;95.40
10089;DHT22;51898;49.864;8.550;2023-07-29T05:15:34;19.30;95.10
10089;DHT22;51898;49.864;8.550;2023-07-29T05:18:36;19.40;94.60
10089;DHT22;51898;49.864;8.550;2023-07-29T05:21:37;19.50;94.30
10089;DHT22;51898;49.864;8.550;2023-07-29T05:24:40;19.50;94.20
10089;DHT22;51898;49.864;8.550;2023-07-29T05:27:41;19.60;93.90
10089;DHT22;51898;49.864;8.550;2023-07-29T05:30:43;19.80;93.40
10089;DHT22;51898;49.864;8.550;2023-07-29T05:33:45;19.80;93.00
10089;DHT22;51898;49.864;8.550;2023-07-29T05:36:47;19.80;92.60
10089;DHT22;51898;49.864;8.550;2023-07-29T05:39:49;19.80;92.20
10089;DHT22;51898;49.864;8.550;2023-07-29T05:42:50;19.80;92.40
10089;DHT22;51898;49.864;8.550;2023-07-29T05:45:52;19.80;92.30
10089;DHT22;51898;49.864;8.550;2023-07-29T05:48:54;19.80;92.60
10089;DHT22;51898;49.864;8.550;2023-07-29T05:51:56;19.80;92.70
10089;DHT22;51898;49.864;8.550;2023-07-29T05:54:57;19.70;92.90
10089;DHT22;51898;49.864;8.550;2023-07-29T05:57:59;19.70;93.20
10089;DHT22;51898;49.864;8.550;2023-07-29T06:01:01;19.70;93.20
10089;DHT22;51898;49.864;8.550;2023-07-29T06:04:03;19.70;93.20
10089;DHT22;51898;49.864;8.550;2023-07-29T06:07:05;19.80;93.40
10089;DHT22;51898;49.864;8.550;2023-07-29T06:10:07;19.70;93.70
10089;DHT22;51898;49.864;8.550;2023-07-29T06:13:09;19.60;93.60
10089;DHT22;51898;49.864;8.550;2023-07-29T06:16:11;19.60;94.00
10089;DHT22;51898;49.864;8.550;2023-07-29T06:19:13;19.60;94.00
10089;DHT22;51898;49.864;8.550;2023-07-29T06:22:14;19.60;94.40
10089;DHT22;51898;49.864;8.550;2023-07-29T06:25:16;19.60;94.30
10089;DHT22;51898;49.864;8.550;2023-07-29T06:28:18;19.70;94.20
10089;DHT22;51898;49.864;8.550;2023-07-29T06:31:20;19.60;94.30
10089;DHT22;51898;49.864;8.550;2023-07-29T06:34:22;19.60;94.70
10089;DHT22;51898;49.864;8.550;2023-07-29T06:37:27;19.70;95.10
10089;DHT22;51898;49.864;8.550;2023-07-29T06:40:28;19.70;95.20
10089;DHT22;51898;49.864;8.550;2023-07-29T06:43:30;19.70;95.10
10089;DHT22;51898;49.864;8.550;2023-07-29T06:46:32;19.60;95.00
10089;DHT22;51898;49.864;8.550;2023-07-29T06:49:34;19.70;95.10
10089;DHT22;51898;49.864;8.550;2023-07-29T06:52:35;19.60;95.30
10089;DHT22;51898;49.864;8.550;2023-07-29T06:55:38;19.60;95.40
10089;DHT22;51898;49.864;8.550;2023-07-29T06:58:40;19.60;95.50
10089;DHT22;51898;49.864;8.550;2023-07-29T07:01:42;19.50;96.00
10089;DHT22;51898;49.864;8.550;2023-07-29T07:04:44;19.40;96.60
10089;DHT22;51898;49.864;8.550;2023-07-29T07:07:46;19.40;97.10
10089;DHT22;51898;49.864;8.550;2023-07-29T07:10:47;19.40;97.10
10089;DHT22;51898;49.864;8.550;2023-07-29T07:13:49;19.30;97.40
10089;DHT22;51898;49.864;8.550;2023-07-29T07:16:51;19.30;97.50
10089;DHT22;51898;49.864;8.550;2023-07-29T07:19:52;19.30;97.80
10089;DHT22;51898;49.864;8.550;2023-07-29T07:22:54;19.30;98.00
10089;DHT22;51898;49.864;8.550;2023-07-29T07:25:57;19.40;97.90
10089;DHT22;51898;49.864;8.550;2023-07-29T07:28:58;19.40;98.00
10089;DHT22;51898;49.864;8.550;2023-07-29T07:32:00;19.40;98.00
10089;DHT22;51898;49.864;8.550;2023-07-29T07:35:02;19.30;98.20
10089;DHT22;51898;49.864;8.550;2023-07-29T07:38:04;19.40;98.40
10089;DHT22;51898;49.864;8.550;2023-07-29T07:41:05;19.40;98.40
10089;DHT22;51898;49.864;8.550;2023-07-29T07:44:07;19.50;98.00
10089;DHT22;51898;49.864;8.550;2023-07-29T07:47:09;19.50;97.60
10089;DHT22;51898;49.864;8.550;2023-07-29T07:50:11;19.60;97.00
10089;DHT22;51898;49.864;8.550;2023-07-29T07:53:12;19.60;96.30
10089;DHT22;51898;49.864;8.550;2023-07-29T07:56:14;19.70;96.10
10089;DHT22;51898;49.864;8.550;2023-07-29T07:59:16;19.80;95.60
10089;DHT22;51898;49.864;8.550;2023-07-29T08:02:18;19.90;94.00
10089;DHT22;51898;49.864;8.550;2023-07-29T08:05:20;20.00;93.60
10089;DHT22;51898;49.864;8.550;2023-07-29T08:08:22;20.10;93.50
10089;DHT22;51898;49.864;8.550;2023-07-29T08:11:24;20.20;93.10
10089;DHT22;51898;49.864;8.550;2023-07-29T08:14:25;20.30;92.20
10089;DHT22;51898;49.864;8.550;2023-07-29T08:17:28;20.30;90.40
10089;DHT22;51898;49.864;8.550;2023-07-29T08:20:30;20.40;90.00
10089;DHT22;51898;49.864;8.550;2023-07-29T08:23:33;20.50;89.60
10089;DHT22;51898;49.864;8.550;2023-07-29T08:26:35;20.70;90.40
10089;DHT22;51898;49.864;8.550;2023-07-29T08:29:37;21.00;90.30
10089;DHT22;51898;49.864;8.550;2023-07-29T08:32:39;21.40;89.00
10089;DHT22;51898;49.864;8.550;2023-07-29T08:35:40;21.70;87.40
10089;DHT22;51898;49.864;8.550;2023-07-29T08:38:42;21.70;85.90
10089;DHT22;51898;49.864;8.550;2023-07-29T08:41:59;21.90;87.10
10089;DHT22;51898;49.864;8.550;2023-07-29T08:45:07;22.10;84.90
10089;DHT22;51898;49.864;8.550;2023-07-29T08:48:11;22.30;84.60
10089;DHT22;51898;49.864;8.550;2023-07-29T08:51:14;22.60;84.30
10089;DHT22;51898;49.864;8.550;2023-07-29T08:54:16;22.60;83.60
10089;DHT22;51898;49.864;8.550;2023-07-29T08:57:19;22.70;83.20
10089;DHT22;51898;49.864;8.550;2023-07-29T09:00:22;22.80;83.40
10089;DHT22;51898;49.864;8.550;2023-07-29T09:03:24;22.80;82.90
10089;DHT22;51898;49.864;8.550;2023-07-29T09:06:26;22.90;82.10
10089;DHT22;51898;49.864;8.550;2023-07-29T09:09:29;23.00;81.40
10089;DHT22;51898;49.864;8.550;2023-07-29T09:12:30;23.10;79.30
10089;DHT22;51898;49.864;8.550;2023-07-29T09:15:35;23.10;78.40
10089;DHT22;51898;49.864;8.550;2023-07-29T09:18:37;23.10;77.80
10089;DHT22;51898;49.864;8.550;2023-07-29T09:21:39;23.10;78.40
10089;DHT22;51898;49.864;8.550;2023-07-29T09:24:41;23.20;77.60
10089;DHT22;51898;49.864;8.550;2023-07-29T09:27:43;23.30;77.60
10089;DHT22;51898;49.864;8.550;2023-07-29T09:30:46;23.40;76.90
10089;DHT22;51898;49.864;8.550;2023-07-29T09:33:48;23.50;76.40
10089;DHT22;51898;49.864;8.550;2023-07-29T09:36:50;23.50;76.90
10089;DHT22;51898;49.864;8.550;2023-07-29T09:39:52;23.80;76.30
10089;DHT22;51898;49.864;8.550;2023-07-29T09:42:55;23.90;75.40
10089;DHT22;51898;49.864;8.550;2023-07-29T09:46:06;23.90;75.00
10089;DHT22;51898;49.864;8.550;2023-07-29T09:49:10;23.80;74.20
10089;DHT22;51898;49.864;8.550;2023-07-29T09:52:17;23.80;75.20
10089;DHT22;51898;49.864;8.550;2023-07-29T09:55:23;24.10;73.60
10089;DHT22;51898;49.864;8.550;2023-07-29T09:58:27;24.30;72.90
10089;DHT22;51898;49.864;8.550;2023-07-29T10:01:28;24.50;72.00
10089;DHT22;51898;49.864;8.550;2023-07-29T10:04:32;24.80;73.80
10089;DHT22;51898;49.864;8.550;2023-07-29T10:07:37;25.10;71.80
10089;DHT22;51898;49.864;8.550;2023-07-29T10:10:42;25.30;71.60
10089;DHT22;51898;49.864;8.550;2023-07-29T10:13:46;25.30;71.50
10089;DHT22;51898;49.864;8.550;2023-07-29T10:17:01;25.40;71.70
10089;DHT22;51898;49.864;8.550;2023-07-29T10:20:06;25.50;71.10
10089;DHT22;51898;49.864;8.550;2023-07-29T10:23:10;25.50;71.10
10089;DHT22;51898;49.864;8.550;2023-07-29T10:26:13;25.60;69.60
10089;DHT22;51898;49.864;8.550;2023-07-29T10:29:23;25.50;69.50
10089;DHT22;51898;49.864;8.550;2023-07-29T10:32:26;25.40;69.60
10089;DHT22;51898;49.864;8.550;2023-07-29T10:35:28;25.20;70.90
10089;DHT22;51898;49.864;8.550;2023-07-29T10:38:30;25.10;70.10
10089;DHT22;51898;49.864;8.550;2023-07-29T10:42:01;24.80;71.40
10089;DHT22;51898;49.864;8.550;2023-07-29T10:45:19;24.70;72.20
10089;DHT22;51898;49.864;8.550;2023-07-29T10:51:41;24.50;72.40
10089;DHT22;51898;49.864;8.550;2023-07-29T10:54:44;24.50;72.80
10089;DHT22;51898;49.864;8.550;2023-07-29T10:57:46;24.90;72.00
10089;DHT22;51898;49.864;8.550;2023-07-29T11:00:49;25.10;71.10
10089;DHT22;51898;49.864;8.550;2023-07-29T11:07:22;25.90;68.10
10089;DHT22;51898;49.864;8.550;2023-07-29T11:10:25;26.00;68.20
10089;DHT22;51898;49.864;8.550;2023-07-29T11:13:28;26.00;66.90
10089;DHT22;51898;49.864;8.550;2023-07-29T11:16:30;26.10;65.90
10089;DHT22;51898;49.864;8.550;2023-07-29T11:19:33;26.30;64.80
10089;DHT22;51898;49.864;8.550;2023-07-29T11:22:36;26.50;65.00
10089;DHT22;51898;49.864;8.550;2023-07-29T11:25:38;26.70;63.90
10089;DHT22;51898;49.864;8.550;2023-07-29T11:28:40;27.00;62.40
10089;DHT22;51898;49.864;8.550;2023-07-29T11:31:42;27.40;59.90
10089;DHT22;51898;49.864;8.550;2023-07-29T11:34:44;27.50;56.90
10089;DHT22;51898;49.864;8.550;2023-07-29T11:37:48;27.50;58.70
10089;DHT22;51898;49.864;8.550;2023-07-29T11:41:00;27.40;55.70
10089;DHT22;51898;49.864;8.550;2023-07-29T11:44:03;27.10;56.60
10089;DHT22;51898;49.864;8.550;2023-07-29T11:47:09;26.70;55.80
10089;DHT22;51898;49.864;8.550;2023-07-29T11:50:13;26.60;55.80
10089;DHT22;51898;49.864;8.550;2023-07-29T11:53:17;26.70;55.80
10089;DHT22;51898;49.864;8.550;2023-07-29T11:56:20;26.80;55.70
10089;DHT22;51898;49.864;8.550;2023-07-29T11:59:21;27.00;55.20
10089;DHT22;51898;49.864;8.550;2023-07-29T12:02:24;27.20;56.00
10089;DHT22;51898;49.864;8.550;2023-07-29T12:05:27;27.10;54.00
10089;DHT22;51898;49.864;8.550;2023-07-29T12:08:29;26.70;54.80
10089;DHT22;51898;49.864;8.550;2023-07-29T12:11:30;26.60;56.00
10089;DHT22;51898;49.864;8.550;2023-07-29T12:14:34;26.90;53.90
10089;DHT22;51898;49.864;8.550;2023-07-29T12:17:42;27.10;53.00
10089;DHT22;51898;49.864;8.550;2023-07-29T12:20:44;27.40;51.20
10089;DHT22;51898;49.864;8.550;2023-07-29T12:23:46;27.50;52.00
10089;DHT22;51898;49.864;8.550;2023-07-29T12:26:47;27.50;50.40
10089;DHT22;51898;49.864;8.550;2023-07-29T12:29:51;27.40;50.40
10089;DHT22;51898;49.864;8.550;2023-07-29T12:32:53;27.60;51.90
10089;DHT22;51898;49.864;8.550;2023-07-29T12:35:55;27.50;51.20
10089;DHT22;51898;49.864;8.550;2023-07-29T12:38:59;27.20;51.00
10089;DHT22;51898;49.864;8.550;2023-07-29T12:42:02;27.00;51.60
10089;DHT22;51898;49.864;8.550;2023-07-29T12:45:05;27.00;50.20
10089;DHT22;51898;49.864;8.550;2023-07-29T12:48:07;27.00;48.40
10089;DHT22;51898;49.864;8.550;2023-07-29T12:51:09;26.90;49.70
10089;DHT22;51898;49.864;8.550;2023-07-29T12:54:11;26.90;49.50
10089;DHT22;51898;49.864;8.550;2023-07-29T12:57:12;26.90;49.40
10089;DHT22;51898;49.864;8.550;2023-07-29T13:00:14;27.00;51.10
10089;DHT22;51898;49.864;8.550;2023-07-29T13:03:16;27.10;47.70
10089;DHT22;51898;49.864;8.550;2023-07-29T13:06:18;27.10;46.90
10089;DHT22;51898;49.864;8.550;2023-07-29T13:09:19;27.20;49.00
10089;DHT22;51898;49.864;8.550;2023-07-29T13:12:24;27.20;47.80
10089;DHT22;51898;49.864;8.550;2023-07-29T13:15:25;27.40;48.40
10089;DHT22;51898;49.864;8.550;2023-07-29T13:18:27;27.60;47.20
10089;DHT22;51898;49.864;8.550;2023-07-29T13:21:29;27.60;46.00
10089;DHT22;51898;49.864;8.550;2023-07-29T13:24:30;27.50;46.40
10089;DHT22;51898;49.864;8.550;2023-07-29T13:27:33;27.40;44.40
10089;DHT22;51898;49.864;8.550;2023-07-29T13:30:35;27.40;44.10
10089;DHT22;51898;49.864;8.550;2023-07-29T13:33:37;27.50;45.30
10089;DHT22;51898;49.864;8.550;2023-07-29T13:36:39;27.60;45.80
10089;DHT22;51898;49.864;8.550;2023-07-29T13:39:40;27.70;44.70
10089;DHT22;51898;49.864;8.550;2023-07-29T13:42:42;27.60;44.30
10089;DHT22;51898;49.864;8.550;2023-07-29T13:45:44;27.50;45.70
10089;DHT22;51898;49.864;8.550;2023-07-29T13:48:46;27.80;46.10
10089;DHT22;51898;49.864;8.550;2023-07-29T13:51:47;28.00;46.60
10089;DHT22;51898;49.864;8.550;2023-07-29T13:54:49;28.20;45.50
10089;DHT22;51898;49.864;8.550;2023-07-29T13:57:52;28.30;44.80
10089;DHT22;51898;49.864;8.550;2023-07-29T14:00:54;28.10;45.80
10089;DHT22;51898;49.864;8.550;2023-07-29T14:04:00;28.00;45.40
10089;DHT22;51898;49.864;8.550;2023-07-29T14:07:02;27.90;45.60
10089;DHT22;51898;49.864;8.550;2023-07-29T14:10:05;27.60;45.50
10089;DHT22;51898;49.864;8.550;2023-07-29T14:13:07;27.30;46.50
10089;DHT22;51898;49.864;8.550;2023-07-29T14:16:08;27.50;46.70
10089;DHT22;51898;49.864;8.550;2023-07-29T14:19:10;27.50;47.00
10089;DHT22;51898;49.864;8.550;2023-07-29T14:22:12;27.10;47.70
10089;DHT22;51898;49.864;8.550;2023-07-29T14:25:14;27.00;48.10
10089;DHT22;51898;49.864;8.550;2023-07-29T14:28:16;27.10;47.70
10089;DHT22;51898;49.864;8.550;2023-07-29T14:31:18;27.10;47.90
10089;DHT22;51898;49.864;8.550;2023-07-29T14:34:20;27.30;48.70
10089;DHT22;51898;49.864;8.550;2023-07-29T14:37:22;27.20;48.50
10089;DHT22;51898;49.864;8.550;2023-07-29T14:40:23;27.00;49.60
10089;DHT22;51898;49.864;8.550;2023-07-29T14:43:26;27.30;49.40
10089;DHT22;51898;49.864;8.550;2023-07-29T14:46:27;27.70;47.40
10089;DHT22;51898;49.864;8.550;2023-07-29T14:49:29;27.80;48.20
10089;DHT22;51898;49.864;8.550;2023-07-29T14:52:31;27.80;48.00
10089;DHT22;51898;49.864;8.550;2023-07-29T14:55:33;27.70;47.90
10089;DHT22;51898;49.864;8.550;2023-07-29T14:58:34;27.50;48.40
10089;DHT22;51898;49.864;8.550;2023-07-29T15:01:36;27.10;48.60
10089;DHT22;51898;49.864;8.550;2023-07-29T15:04:38;27.00;49.20
10089;DHT22;51898;49.864;8.550;2023-07-29T15:07:40;27.00;49.10
10089;DHT22;51898;49.864;8.550;2023-07-29T15:10:49;26.90;49.30
10089;DHT22;51898;49.864;8.550;2023-07-29T15:13:51;26.90;48.10
10089;DHT22;51898;49.864;8.550;2023-07-29T15:16:53;27.10;49.10
10089;DHT22;51898;49.864;8.550;2023-07-29T15:19:55;27.30;47.50
10089;DHT22;51898;49.864;8.550;2023-07-29T15:22:57;27.70;47.40
10089;DHT22;51898;49.864;8.550;2023-07-29T15:25:58;27.90;47.70
10089;DHT22;51898;49.864;8.550;2023-07-29T15:29:03;27.80;47.50
10089;DHT22;51898;49.864;8.550;2023-07-29T15:32:05;27.60;48.60
10089;DHT22;51898;49.864;8.550;2023-07-29T15:35:08;27.50;50.00
10089;DHT22;51898;49.864;8.550;2023-07-29T15:38:09;27.30;49.30
10089;DHT22;51898;49.864;8.550;2023-07-29T15:41:11;27.00;50.00
10089;DHT22;51898;49.864;8.550;2023-07-29T15:44:13;26.90;50.90
10089;DHT22;51898;49.864;8.550;2023-07-29T15:47:14;26.80;50.80
10089;DHT22;51898;49.864;8.550;2023-07-29T15:50:20;26.80;51.00
10089;DHT22;51898;49.864;8.550;2023-07-29T15:53:21;27.50;50.00
10089;DHT22;51898;49.864;8.550;2023-07-29T15:56:23;28.10;48.90
10089;DHT22;51898;49.864;8.550;2023-07-29T15:59:25;28.50;47.40
10089;DHT22;51898;49.864;8.550;2023-07-29T16:02:27;28.20;47.40
10089;DHT22;51898;49.864;8.550;2023-07-29T16:05:29;28.60;47.50
10089;DHT22;51898;49.864;8.550;2023-07-29T16:08:31;29.20;45.80
10089;DHT22;51898;49.864;8.550;2023-07-29T16:11:33;29.60;45.50
10089;DHT22;51898;49.864;8.550;2023-07-29T16:14:35;29.80;43.30
10089;DHT22;51898;49.864;8.550;2023-07-29T16:17:36;29.80;42.10
10089;DHT22;51898;49.864;8.550;2023-07-29T16:20:38;29.50;42.70
10089;DHT22;51898;49.864;8.550;2023-07-29T16:23:40;28.90;43.30
10089;DHT22;51898;49.864;8.550;2023-07-29T16:26:42;28.80;43.30
10089;DHT22;51898;49.864;8.550;2023-07-29T16:29:46;29.00;43.80
10089;DHT22;51898;49.864;8.550;2023-07-29T16:32:49;29.20;43.00
10089;DHT22;51898;49.864;8.550;2023-07-29T16:35:51;29.60;42.70
10089;DHT22;51898;49.864;8.550;2023-07-29T16:38:52;29.90;41.60
10089;DHT22;51898;49.864;8.550;2023-07-29T16:41:54;30.10;42.00
10089;DHT22;51898;49.864;8.550;2023-07-29T16:45:00;30.30;42.10
10089;DHT22;51898;49.864;8.550;2023-07-29T16:48:02;30.50;41.40
10089;DHT22;51898;49.864;8.550;2023-07-29T16:51:04;30.50;41.50
10089;DHT22;51898;49.864;8.550;2023-07-29T16:54:06;30.40;40.80
10089;DHT22;51898;49.864;8.550;2023-07-29T16:57:08;30.40;41.70
10089;DHT22;51898;49.864;8.550;2023-07-29T17:00:14;30.40;41.80
10089;DHT22;51898;49.864;8.550;2023-07-29T17:03:16;30.20;41.80
10089;DHT22;51898;49.864;8.550;2023-07-29T17:06:19;30.00;42.40
10089;DHT22;51898;49.864;8.550;2023-07-29T17:09:21;29.70;42.90
10089;DHT22;51898;49.864;8.550;2023-07-29T17:12:23;29.00;44.50
10089;DHT22;51898;49.864;8.550;2023-07-29T17:15:25;28.30;45.70
10089;DHT22;51898;49.864;8.550;2023-07-29T17:18:27;27.80;46.30
10089;DHT22;51898;49.864;8.550;2023-07-29T17:21:29;27.60;47.90
10089;DHT22;51898;49.864;8.550;2023-07-29T17:24:30;27.30;48.40
10089;DHT22;51898;49.864;8.550;2023-07-29T17:27:32;27.10;49.30
10089;DHT22;51898;49.864;8.550;2023-07-29T17:30:34;26.90;49.30
10089;DHT22;51898;49.864;8.550;2023-07-29T17:33:38;26.80;49.60
10089;DHT22;51898;49.864;8.550;2023-07-29T17:36:40;26.60;49.50
10089;DHT22;51898;49.864;8.550;2023-07-29T17:39:42;26.40;50.40
10089;DHT22;51898;49.864;8.550;2023-07-29T17:42:45;26.30;50.80
10089;DHT22;51898;49.864;8.550;2023-07-29T17:45:46;26.20;51.30
10089;DHT22;51898;49.864;8.550;2023-07-29T17:48:48;26.20;51.10
10089;DHT22;51898;49.864;8.550;2023-07-29T17:51:50;26.20;51.40
10089;DHT22;51898;49.864;8.550;2023-07-29T17:54:52;26.40;51.70
10089;DHT22;51898;49.864;8.550;2023-07-29T17:57:53;26.60;52.10
10089;DHT22;51898;49.864;8.550;2023-07-29T18:00:56;26.70;51.60
10089;DHT22;51898;49.864;8.550;2023-07-29T18:03:59;26.80;51.80
10089;DHT22;51898;49.864;8.550;2023-07-29T18:07:01;27.40;49.90
10089;DHT22;51898;49.864;8.550;2023-07-29T18:10:03;28.10;48.20
10089;DHT22;51898;49.864;8.550;2023-07-29T18:13:06;28.70;47.20
10089;DHT22;51898;49.864;8.550;2023-07-29T18:16:09;28.80;46.30
10089;DHT22;51898;49.864;8.550;2023-07-29T18:19:12;28.60;47.00
10089;DHT22;51898;49.864;8.550;2023-07-29T18:22:14;28.20;46.60
10089;DHT22;51898;49.864;8.550;2023-07-29T18:25:16;27.80;48.10
10089;DHT22;51898;49.864;8.550;2023-07-29T18:28:18;27.40;49.00
10089;DHT22;51898;49.864;8.550;2023-07-29T18:31:20;27.00;50.30
10089;DHT22;51898;49.864;8.550;2023-07-29T18:34:25;26.70;51.10
10089;DHT22;51898;49.864;8.550;2023-07-29T18:37:27;26.40;51.90
10089;DHT22;51898;49.864;8.550;2023-07-29T18:40:28;26.10;52.50
10089;DHT22;51898;49.864;8.550;2023-07-29T18:43:30;25.90;53.30
10089;DHT22;51898;49.864;8.550;2023-07-29T18:46:34;25.70;54.20
10089;DHT22;51898;49.864;8.550;2023-07-29T18:49:37;25.50;54.80
10089;DHT22;51898;49.864;8.550;2023-07-29T18:52:39;25.50;55.40
10089;DHT22;51898;49.864;8.550;2023-07-29T18:55:41;25.30;55.80
10089;DHT22;51898;49.864;8.550;2023-07-29T18:58:44;25.10;56.40
10089;DHT22;51898;49.864;8.550;2023-07-29T19:01:46;25.10;57.20
10089;DHT22;51898;49.864;8.550;2023-07-29T19:04:48;24.90;58.30
10089;DHT22;51898;49.864;8.550;2023-07-29T19:07:50;24.70;58.60
10089;DHT22;51898;49.864;8.550;2023-07-29T19:10:52;24.60;59.20
10089;DHT22;51898;49.864;8.550;2023-07-29T19:13:53;24.50;59.60
10089;DHT22;51898;49.864;8.550;2023-07-29T19:16:56;24.40;59.70
10089;DHT22;51898;49.864;8.550;2023-07-29T19:19:57;24.30;60.40
10089;DHT22;51898;49.864;8.550;2023-07-29T19:22:59;24.30;61.10